Byers, TX (76357)

7:54 AM CDT on October 21, 2014 (GMT -0500)
Henrietta | Change Station
CLOSE
Current Station
Personal Weather Station
Location: Henrietta, TX
Elevation: 930 ft
Nearby Weather Stations

Elev 930 ft 33.82 °N, 98.20 °W | Updated 4 minutes ago

Clear
Clear
58.1 °F
Feels Like 58.1 °F
N
0.0
Wind Variable Wind from South
Gusts 0.0 mph

Today
High -- | Low -- °F
--% Chance of Precip.
Yesterday
High -- | Low -- °F
Precip. -- in
7:42 AM 6:51 PM
Waning Crescent, 6% visible
Pressure 30.04 in
Visibility 7.0 miles
Clouds Clear
Dew Point 56 °F
Humidity 91%
Rainfall 0.00 in
Snow Depth Not available.
UV 0 out of 12
Pollen 5.80 out of 12
Air Quality Not available.
Flu Activity Sporadic
METAR KSPS 211152Z 00000KT 7SM CLR 15/13 A3006 RMK AO2 SLP171 T01500133 10183 20144 51007

More Conditions Fewer Conditions

Pressure 30.04 in
Visibility 7.0 miles
Clouds Clear
Dew Point 56 °F
Humidity 91%
Rainfall 0.00 in
Snow Depth Not available.
UV 0 out of 12
Pollen 5.80 out of 12
Air Quality Not available.
Flu Activity Sporadic
METAR KSPS 211152Z 00000KT 7SM CLR 15/13 A3006 RMK AO2 SLP171 T01500133 10183 20144 51007

More Conditions Fewer Conditions

10-Day Weather Forecast

Almanac

Astronomy

Oct. 21, 2014 Rise Set
Actual Time 7:42 AM CDT 6:51 PM CDT
Civil Twilight 7:17 AM CDT 7:16 PM CDT
Nautical Twilight 6:48 AM CDT 7:45 PM CDT
Astronomical Twilight 6:19 AM CDT 8:14 PM CDT
Moon 5:34 AM CDT 5:41 PM CDT
Length of Visible Light 11h 59m
Length of Day
11h 08m
Tomorrow will be 1m 58s shorter.
Waning Crescent, 6% of the Moon is Illuminated
Today
Waning Crescent
Oct 23
New
Oct 30
First Quarter
Nov 6
Full
Nov 14
Last Quarter

Today's Extremes

State Highs State Lows

Community

WunderPhotos

Upload Photos

1,763,649 photos uploaded!

Nearby

Snow Depth

Station Depth Elevation
No new snow has been reported.

Earthquake Activity

City Distance Mag. Time & Date
Luther, Oklahoma 120 miles 2.8 4:33 PM CDT
2014-10-20
Boley, Oklahoma 131 miles 3.5 3:34 PM CDT
2014-10-20
Cushing, Oklahoma 152 miles 2.8 11:41 AM CDT
2014-10-20
Cushing, Oklahoma 152 miles 2.5 10:20 AM CDT
2014-10-20
Minimum magnitude displayed is 2.5.

Coastal Water Temperatures

Place Temperature
No Stations Reporting

Nearby Weather Stations